Time;durP1;ratioP1;P1;durP2;ratioP2;P2;SDS_P1;SDS_P2;PMS_P1;PMS_P2;Temp;Humidity;BMP_temperature;BMP_pressure;BME280_temperature;BME280_humidity;BME280_pressure;Samples;Min_cycle;Max_cycle;Signal;HPM_P1;HPM_P2
2022/03/12 00:00:43;;;;;;;3.08;1.42;;;18.80;57.60;;;;;;5011343;28;20109;-77
2022/03/12 00:03:10;;;;;;;3.03;1.40;;;18.80;57.50;;;;;;5011318;28;20026;-76
2022/03/12 00:05:36;;;;;;;2.63;1.10;;;18.70;57.50;;;;;;5010816;28;20050;-77
2022/03/12 00:08:03;;;;;;;1.85;1.00;;;18.70;57.50;;;;;;5010743;28;20033;-76
2022/03/12 00:10:32;;;;;;;1.70;1.05;;;18.70;57.40;;;;;;5010993;28;20029;-77
2022/03/12 00:12:59;;;;;;;1.48;0.90;;;18.70;57.50;;;;;;5010735;28;20030;-77
2022/03/12 00:15:26;;;;;;;2.80;1.23;;;18.70;57.50;;;;;;5010828;28;20450;-77
2022/03/12 00:17:52;;;;;;;3.95;1.42;;;18.60;57.50;;;;;;5010725;28;20390;-77
2022/03/12 00:20:19;;;;;;;3.00;1.48;;;18.60;57.60;;;;;;5010664;28;20501;-77
2022/03/12 00:22:47;;;;;;;1.92;1.23;;;18.60;57.50;;;;;;5010540;28;20018;-77
2022/03/12 00:25:14;;;;;;;3.13;1.30;;;18.60;57.60;;;;;;5010867;28;20022;-77
2022/03/12 00:27:41;;;;;;;2.03;1.05;;;18.60;57.50;;;;;;5011146;28;20096;-77
2022/03/12 00:30:09;;;;;;;1.73;1.02;;;18.50;57.50;;;;;;5011123;28;20026;-77
2022/03/12 00:32:38;;;;;;;2.55;1.20;;;18.50;57.50;;;;;;5010588;28;20109;-76
2022/03/12 00:35:04;;;;;;;1.55;0.95;;;18.50;57.60;;;;;;5013711;28;20033;-77
2022/03/12 00:37:30;;;;;;;1.30;0.70;;;18.50;57.50;;;;;;5014189;28;20018;-78
2022/03/12 00:39:56;;;;;;;1.50;1.02;;;18.50;57.60;;;;;;5013965;28;20037;-77
2022/03/12 00:42:21;;;;;;;2.28;1.15;;;18.40;57.70;;;;;;5014108;28;20045;-77
2022/03/12 00:44:48;;;;;;;2.45;1.20;;;18.40;57.70;;;;;;5013853;28;20093;-77
2022/03/12 00:47:14;;;;;;;3.20;1.27;;;18.40;57.60;;;;;;5014004;28;20030;-77
2022/03/12 00:49:39;;;;;;;2.53;1.25;;;18.40;57.70;;;;;;5014379;28;20033;-77
2022/03/12 00:52:05;;;;;;;1.80;1.08;;;18.40;57.70;;;;;;5013598;28;20477;-77
2022/03/12 00:54:31;;;;;;;1.80;1.02;;;18.40;57.70;;;;;;4996334;28;20408;-76
2022/03/12 00:56:57;;;;;;;1.50;0.88;;;18.40;57.70;;;;;;5013510;28;20018;-77
2022/03/12 00:59:23;;;;;;;1.98;0.90;;;18.30;57.60;;;;;;4996264;28;20060;-77
2022/03/12 01:01:49;;;;;;;1.58;1.00;;;18.30;57.60;;;;;;5012242;28;20437;-76
2022/03/12 01:04:15;;;;;;;2.00;1.23;;;18.30;57.60;;;;;;5013765;28;20021;-76
2022/03/12 01:06:42;;;;;;;1.80;1.00;;;18.30;57.80;;;;;;5013947;28;20442;-76
2022/03/12 01:09:11;;;;;;;1.48;1.00;;;18.30;57.70;;;;;;4996302;28;20428;-76
2022/03/12 01:11:39;;;;;;;2.15;1.35;;;18.20;57.60;;;;;;5013755;28;20049;-77
2022/03/12 01:14:06;;;;;;;1.77;0.93;;;18.20;57.60;;;;;;4995691;28;20034;-77
2022/03/12 01:16:35;;;;;;;1.77;0.90;;;18.20;57.60;;;;;;5013454;28;20030;-77
2022/03/12 01:19:01;;;;;;;1.92;0.88;;;18.20;57.70;;;;;;5013142;28;20069;-77
2022/03/12 01:21:26;;;;;;;1.63;0.93;;;18.20;57.70;;;;;;5013256;28;20437;-78
2022/03/12 01:23:53;;;;;;;1.95;1.20;;;18.20;57.80;;;;;;5013177;28;20037;-78
2022/03/12 01:26:21;;;;;;;1.80;1.00;;;18.10;57.70;;;;;;5013344;28;20026;-77
2022/03/12 01:28:47;;;;;;;3.58;1.23;;;18.10;57.70;;;;;;5013025;28;20481;-77
2022/03/12 01:31:14;;;;;;;3.00;0.88;;;18.10;57.80;;;;;;5013110;28;20064;-77
2022/03/12 01:33:40;;;;;;;2.47;0.93;;;18.10;57.70;;;;;;5013416;28;20025;-77
2022/03/12 01:36:07;;;;;;;1.63;1.00;;;18.10;57.80;;;;;;5012888;28;20022;-77
2022/03/12 01:38:35;;;;;;;1.40;0.80;;;18.10;57.80;;;;;;5011780;28;20026;-77
2022/03/12 01:41:02;;;;;;;2.28;1.10;;;18.00;57.70;;;;;;5012834;28;20034;-77
2022/03/12 01:43:33;;;;;;;1.40;0.80;;;18.10;57.80;;;;;;4995397;28;20580;-77
2022/03/12 01:46:01;;;;;;;1.60;0.88;;;18.00;57.90;;;;;;5011480;28;20104;-77
2022/03/12 01:48:30;;;;;;;1.75;0.90;;;18.00;57.90;;;;;;5012917;28;20096;-77
2022/03/12 01:50:57;;;;;;;1.50;0.90;;;18.00;57.90;;;;;;5012699;28;20034;-77
2022/03/12 01:53:26;;;;;;;1.73;1.05;;;18.00;57.90;;;;;;5012841;28;20060;-78
2022/03/12 01:55:53;;;;;;;1.52;0.82;;;17.90;57.80;;;;;;5012594;28;20117;-77
2022/03/12 01:58:20;;;;;;;1.25;0.93;;;17.90;57.90;;;;;;4995092;28;20025;-77
2022/03/12 02:00:49;;;;;;;1.88;1.00;;;18.00;57.90;;;;;;5012255;28;20038;-77
2022/03/12 02:03:19;;;;;;;1.35;0.90;;;17.90;57.90;;;;;;5012640;28;20030;-77
2022/03/12 02:05:45;;;;;;;2.13;0.95;;;17.90;57.90;;;;;;5012396;28;20022;-77
2022/03/12 02:08:13;;;;;;;2.33;0.98;;;17.90;58.40;;;;;;4995206;28;20025;-77
2022/03/12 02:10:38;;;;;;;2.85;0.82;;;17.90;57.90;;;;;;4995172;28;20504;-76
2022/03/12 02:13:04;;;;;;;2.22;1.02;;;17.90;57.80;;;;;;5012182;28;20018;-76
2022/03/12 02:15:30;;;;;;;2.63;1.10;;;17.90;57.90;;;;;;4994770;28;20033;-76
2022/03/12 02:17:56;;;;;;;2.42;1.00;;;17.90;57.80;;;;;;5012156;28;20071;-76
2022/03/12 02:20:22;;;;;;;1.98;0.90;;;17.90;57.80;;;;;;5012231;28;20482;-76
2022/03/12 02:22:54;;;;;;;1.98;0.90;;;17.80;57.80;;;;;;5012017;28;20029;-76
2022/03/12 02:25:27;;;;;;;2.15;1.13;;;17.80;57.90;;;;;;5012300;28;20068;-77
2022/03/12 02:27:52;;;;;;;2.38;0.95;;;17.80;57.90;;;;;;5011885;28;20030;-77
2022/03/12 02:30:20;;;;;;;1.40;0.80;;;17.80;57.90;;;;;;4994578;28;20068;-77
2022/03/12 02:32:47;;;;;;;1.73;1.00;;;17.80;57.90;;;;;;5011617;28;20033;-76
2022/03/12 02:35:13;;;;;;;3.22;1.05;;;17.70;57.90;;;;;;5012031;28;20026;-77
2022/03/12 02:37:42;;;;;;;2.17;1.00;;;17.80;58.00;;;;;;5012306;28;20033;-77
2022/03/12 02:40:09;;;;;;;1.55;0.80;;;17.80;58.00;;;;;;4994642;28;20044;-77
2022/03/12 02:42:38;;;;;;;2.15;0.98;;;17.70;57.90;;;;;;5010709;28;20037;-77
2022/03/12 02:45:07;;;;;;;2.28;0.80;;;17.70;57.90;;;;;;4994064;28;20037;-77
2022/03/12 02:47:33;;;;;;;1.42;1.02;;;17.70;57.90;;;;;;5010664;28;20038;-77
2022/03/12 02:50:07;;;;;;;3.22;1.00;;;17.70;57.90;;;;;;5011642;28;20042;-78
2022/03/12 02:52:41;;;;;;;1.58;0.90;;;17.70;57.90;;;;;;5010536;28;20026;-78
2022/03/12 02:55:13;;;;;;;1.40;0.90;;;17.70;57.90;;;;;;5011832;28;20045;-78
2022/03/12 02:57:40;;;;;;;2.42;0.93;;;17.70;58.50;;;;;;4993915;28;20397;-78
2022/03/12 03:00:08;;;;;;;1.40;0.88;;;17.70;57.90;;;;;;5011447;28;20481;-78
2022/03/12 03:02:41;;;;;;;2.10;0.90;;;17.60;57.90;;;;;;5011577;28;20497;-78
2022/03/12 03:05:22;;;;;;;2.15;0.80;;;17.60;57.90;;;;;;5011984;28;20018;-78
2022/03/12 03:07:56;;;;;;;1.95;0.82;;;17.60;57.90;;;;;;5011382;28;20034;-77
2022/03/12 03:10:40;;;;;;;1.40;0.90;;;17.60;57.90;;;;;;4993816;28;20026;-77
2022/03/12 03:13:27;;;;;;;1.60;0.80;;;17.60;57.90;;;;;;5011305;28;20026;-78
2022/03/12 03:16:02;;;;;;;1.08;0.70;;;17.60;57.90;;;;;;5011204;28;20398;-77
2022/03/12 03:18:33;;;;;;;1.27;0.80;;;17.60;57.90;;;;;;5011505;28;20378;-77
2022/03/12 03:21:00;;;;;;;2.45;1.05;;;17.60;57.90;;;;;;5011156;28;20116;-76
2022/03/12 03:23:28;;;;;;;2.15;1.00;;;17.60;57.90;;;;;;5011480;28;20022;-76
2022/03/12 03:25:54;;;;;;;1.58;0.60;;;17.50;57.90;;;;;;5011158;28;20032;-76
2022/03/12 03:28:20;;;;;;;1.10;0.77;;;17.60;58.00;;;;;;5011265;28;20077;-76
2022/03/12 03:30:46;;;;;;;1.10;0.73;;;17.50;57.90;;;;;;5010990;28;20029;-77
2022/03/12 03:33:20;;;;;;;1.48;0.80;;;17.50;57.90;;;;;;5011367;28;20113;-77
2022/03/12 03:35:47;;;;;;;1.55;0.88;;;17.50;57.90;;;;;;5011121;28;20493;-77
2022/03/12 03:38:13;;;;;;;1.45;0.73;;;17.50;57.90;;;;;;5011277;28;20397;-77
2022/03/12 03:40:40;;;;;;;1.48;0.68;;;17.50;57.90;;;;;;5011446;28;20038;-77
2022/03/12 03:43:09;;;;;;;1.70;0.80;;;17.50;57.90;;;;;;4993329;28;20433;-77
2022/03/12 03:45:35;;;;;;;2.30;1.10;;;17.50;57.90;;;;;;5011113;28;20026;-77
2022/03/12 03:48:01;;;;;;;1.63;0.95;;;17.40;57.90;;;;;;5010940;28;20398;-77
2022/03/12 03:50:27;;;;;;;1.33;0.60;;;17.50;57.90;;;;;;5011165;28;20026;-77
2022/03/12 03:52:57;;;;;;;3.28;0.90;;;17.50;58.00;;;;;;5010961;28;20359;-78
2022/03/12 03:55:25;;;;;;;2.28;0.90;;;17.40;57.90;;;;;;4993737;28;20536;-77
2022/03/12 03:57:53;;;;;;;1.35;0.80;;;17.40;57.90;;;;;;5010872;28;20474;-76
2022/03/12 04:00:22;;;;;;;1.98;0.82;;;17.40;57.90;;;;;;5011028;28;20084;-76
2022/03/12 04:03:02;;;;;;;1.33;0.77;;;17.40;57.90;;;;;;4992886;28;20545;-76
2022/03/12 04:05:29;;;;;;;1.27;0.90;;;17.40;57.90;;;;;;5010984;28;20022;-76
2022/03/12 04:07:55;;;;;;;2.50;0.98;;;17.40;57.90;;;;;;5009490;28;20037;-77
2022/03/12 04:10:20;;;;;;;1.73;0.77;;;17.40;57.90;;;;;;5014770;28;20029;-77
2022/03/12 04:12:46;;;;;;;2.55;0.93;;;17.40;58.00;;;;;;5014536;28;20079;-76
2022/03/12 04:15:12;;;;;;;1.98;0.80;;;17.40;58.00;;;;;;5014675;28;20030;-76
2022/03/12 04:17:38;;;;;;;1.30;0.68;;;17.30;58.00;;;;;;5014936;28;20095;-76
2022/03/12 04:20:04;;;;;;;0.93;0.60;;;17.40;58.00;;;;;;5014282;28;20425;-76
2022/03/12 04:22:31;;;;;;;1.88;0.70;;;17.30;57.90;;;;;;5014422;28;20030;-77
2022/03/12 04:24:57;;;;;;;1.67;0.70;;;17.30;57.90;;;;;;5014248;28;20107;-77
2022/03/12 04:27:22;;;;;;;1.15;0.65;;;17.30;57.90;;;;;;5014441;28;20061;-77
2022/03/12 04:29:49;;;;;;;1.88;0.77;;;17.30;57.90;;;;;;5014162;28;20037;-78
2022/03/12 04:32:16;;;;;;;1.40;0.88;;;17.30;58.00;;;;;;4996627;28;20095;-78
2022/03/12 04:34:42;;;;;;;2.00;0.90;;;17.30;57.90;;;;;;4996582;28;20120;-78
2022/03/12 04:37:07;;;;;;;1.95;0.70;;;17.20;57.90;;;;;;5014538;28;20171;-78
2022/03/12 04:39:34;;;;;;;1.10;0.70;;;17.30;57.90;;;;;;5014236;28;20030;-78
2022/03/12 04:42:00;;;;;;;0.88;0.60;;;17.20;57.90;;;;;;5013870;28;20392;-77
2022/03/12 04:44:26;;;;;;;3.95;1.02;;;17.20;57.90;;;;;;5014144;28;20022;-77
2022/03/12 04:46:52;;;;;;;1.60;0.70;;;17.20;57.90;;;;;;5013908;28;20409;-76
2022/03/12 04:49:19;;;;;;;1.58;0.73;;;17.20;57.80;;;;;;4996580;28;20026;-76
2022/03/12 04:51:44;;;;;;;1.65;0.70;;;17.20;57.90;;;;;;5013725;28;20029;-77
2022/03/12 04:54:10;;;;;;;1.45;0.60;;;17.20;57.90;;;;;;5014283;28;20026;-78
2022/03/12 04:56:36;;;;;;;2.33;0.68;;;17.20;58.00;;;;;;4996394;28;20121;-78
2022/03/12 04:59:02;;;;;;;1.23;0.80;;;17.20;58.00;;;;;;5013694;28;20112;-78
2022/03/12 05:01:28;;;;;;;1.17;0.60;;;17.20;57.90;;;;;;5013754;28;20112;-77
2022/03/12 05:03:54;;;;;;;2.00;0.80;;;17.20;57.90;;;;;;5013564;28;20057;-78
2022/03/12 05:06:23;;;;;;;2.00;0.70;;;17.20;58.00;;;;;;5013624;28;20034;-78
2022/03/12 05:08:49;;;;;;;1.42;0.60;;;17.20;57.90;;;;;;5013495;28;20351;-77
2022/03/12 05:11:15;;;;;;;1.40;0.63;;;17.20;57.90;;;;;;5013676;28;20033;-78
2022/03/12 05:13:40;;;;;;;3.50;0.85;;;17.20;58.00;;;;;;5013919;28;20470;-78
2022/03/12 05:16:06;;;;;;;2.15;0.90;;;17.10;57.90;;;;;;5013348;28;20022;-78
2022/03/12 05:18:36;;;;;;;1.98;0.82;;;17.10;57.80;;;;;;5013406;28;20038;-78
2022/03/12 05:21:03;;;;;;;1.30;0.70;;;17.10;57.90;;;;;;5013092;28;20111;-78
2022/03/12 05:23:29;;;;;;;2.30;0.90;;;17.10;57.90;;;;;;5013439;28;20022;-78
2022/03/12 05:25:55;;;;;;;2.13;1.00;;;17.10;57.90;;;;;;5013181;28;20029;-78
2022/03/12 05:28:24;;;;;;;1.45;0.88;;;17.10;57.90;;;;;;5013394;28;20371;-78
2022/03/12 05:30:52;;;;;;;1.58;0.68;;;17.10;57.90;;;;;;5012873;28;20026;-77
2022/03/12 05:33:19;;;;;;;1.95;0.88;;;17.10;57.90;;;;;;5013215;28;20025;-77
2022/03/12 05:35:46;;;;;;;3.00;1.05;;;17.10;57.90;;;;;;5012897;28;20022;-77
2022/03/12 05:38:12;;;;;;;1.30;0.68;;;17.10;58.40;;;;;;5013337;28;20032;-77
2022/03/12 05:40:40;;;;;;;3.20;1.05;;;17.10;57.90;;;;;;5013346;28;20026;-77
2022/03/12 05:43:12;;;;;;;1.75;0.70;;;17.10;57.90;;;;;;5012766;28;20033;-77
2022/03/12 05:45:39;;;;;;;0.82;0.50;;;17.00;57.90;;;;;;5013258;28;20429;-78
2022/03/12 05:48:09;;;;;;;2.00;0.70;;;17.00;57.90;;;;;;5012709;28;20033;-76
2022/03/12 05:50:39;;;;;;;1.40;0.60;;;17.00;57.90;;;;;;5013090;28;20014;-77
2022/03/12 05:53:08;;;;;;;1.30;0.70;;;17.00;57.90;;;;;;5012635;28;20026;-76
2022/03/12 05:55:36;;;;;;;1.50;0.82;;;17.00;57.80;;;;;;5012772;28;20018;-76
2022/03/12 05:58:02;;;;;;;1.35;0.70;;;17.00;57.80;;;;;;5012563;28;20374;-77
2022/03/12 06:00:27;;;;;;;2.28;0.80;;;17.00;57.90;;;;;;5012530;28;20161;-77
2022/03/12 06:02:53;;;;;;;2.58;0.70;;;17.00;57.80;;;;;;5012464;28;20022;-76
2022/03/12 06:05:21;;;;;;;1.15;0.70;;;17.00;57.80;;;;;;5012608;28;20548;-77
2022/03/12 06:07:49;;;;;;;1.92;0.80;;;17.00;57.90;;;;;;5012353;28;20033;-76
2022/03/12 06:10:17;;;;;;;1.60;0.60;;;17.00;57.90;;;;;;5012484;28;20386;-77
2022/03/12 06:12:43;;;;;;;2.30;0.88;;;17.00;57.80;;;;;;5012109;28;20081;-77
2022/03/12 06:15:14;;;;;;;2.88;0.75;;;16.90;57.80;;;;;;5012803;28;20022;-77
2022/03/12 06:17:41;;;;;;;1.95;0.70;;;16.90;57.80;;;;;;4994984;28;20442;-77
2022/03/12 06:20:10;;;;;;;1.88;0.80;;;16.90;57.80;;;;;;5011248;28;20528;-77
2022/03/12 06:22:37;;;;;;;2.17;0.70;;;16.90;57.80;;;;;;5012276;28;20065;-77
2022/03/12 06:25:05;;;;;;;2.60;0.70;;;16.90;57.80;;;;;;5012045;28;20022;-77
2022/03/12 06:27:31;;;;;;;2.60;1.02;;;16.90;57.80;;;;;;5012433;28;20406;-77
2022/03/12 06:29:56;;;;;;;1.92;0.60;;;16.90;57.90;;;;;;5011933;28;20025;-77
2022/03/12 06:32:22;;;;;;;2.67;0.80;;;16.90;57.80;;;;;;5011332;28;20034;-78
2022/03/12 06:34:49;;;;;;;2.22;0.90;;;16.90;57.80;;;;;;5011862;28;20025;-78
2022/03/12 06:37:14;;;;;;;1.90;0.70;;;16.90;57.80;;;;;;5012069;28;20093;-78
2022/03/12 06:39:40;;;;;;;3.90;0.90;;;16.90;57.80;;;;;;5012354;28;20113;-78
2022/03/12 06:42:06;;;;;;;1.55;0.80;;;16.90;57.80;;;;;;5011666;28;20470;-78
2022/03/12 06:44:32;;;;;;;3.40;0.82;;;16.90;57.80;;;;;;5011971;28;20041;-78
2022/03/12 06:47:04;;;;;;;1.25;0.60;;;16.90;58.40;;;;;;4994057;28;20030;-77
2022/03/12 06:49:30;;;;;;;1.60;0.90;;;16.90;57.80;;;;;;5011882;28;20064;-78
2022/03/12 06:51:56;;;;;;;1.13;0.60;;;16.80;57.80;;;;;;4994121;28;20120;-78
2022/03/12 06:54:22;;;;;;;1.80;1.00;;;16.90;57.80;;;;;;4994053;28;20026;-78
2022/03/12 06:56:48;;;;;;;2.97;1.00;;;16.90;57.90;;;;;;5011540;28;20033;-78
2022/03/12 06:59:13;;;;;;;3.22;1.35;;;16.80;57.70;;;;;;4994071;28;20390;-78
2022/03/12 07:01:39;;;;;;;3.85;1.20;;;16.80;57.80;;;;;;5011911;28;20034;-78
2022/03/12 07:04:06;;;;;;;2.38;0.80;;;16.80;57.70;;;;;;5011366;28;20026;-77
2022/03/12 07:06:33;;;;;;;2.88;0.93;;;16.80;57.80;;;;;;5011639;28;20505;-78
2022/03/12 07:09:00;;;;;;;2.85;0.68;;;16.80;57.80;;;;;;5011258;28;20018;-77
2022/03/12 07:11:25;;;;;;;1.77;0.68;;;16.80;57.80;;;;;;5011599;28;20457;-78
2022/03/12 07:13:51;;;;;;;2.53;0.60;;;16.80;57.80;;;;;;5011409;28;20018;-77
2022/03/12 07:16:17;;;;;;;3.65;1.13;;;16.80;57.80;;;;;;4994045;28;20030;-78
2022/03/12 07:18:42;;;;;;;3.30;0.90;;;16.80;57.80;;;;;;5011388;28;20022;-78
2022/03/12 07:21:08;;;;;;;2.22;0.80;;;16.80;57.80;;;;;;4994195;28;20064;-78
2022/03/12 07:23:34;;;;;;;2.70;0.98;;;16.80;57.80;;;;;;5011502;28;20053;-78
2022/03/12 07:26:00;;;;;;;2.60;0.80;;;16.80;57.80;;;;;;5011246;28;20026;-77
2022/03/12 07:28:27;;;;;;;1.25;0.52;;;16.80;57.80;;;;;;5011476;28;20359;-77
2022/03/12 07:30:53;;;;;;;2.28;0.85;;;16.70;57.70;;;;;;5011065;28;20034;-77
2022/03/12 07:33:19;;;;;;;1.80;0.77;;;16.70;57.80;;;;;;5011575;28;20075;-77
2022/03/12 07:35:45;;;;;;;2.00;0.75;;;16.70;57.80;;;;;;5011192;28;20389;-77
2022/03/12 07:38:12;;;;;;;1.88;0.73;;;16.70;57.80;;;;;;5011579;28;20022;-77
2022/03/12 07:40:39;;;;;;;2.88;1.02;;;16.70;57.80;;;;;;5011605;28;20033;-76
2022/03/12 07:43:05;;;;;;;3.13;0.88;;;16.70;57.70;;;;;;5013273;28;20021;-78
2022/03/12 07:45:31;;;;;;;1.23;0.80;;;16.70;57.70;;;;;;5015368;28;20412;-78
2022/03/12 07:47:57;;;;;;;1.83;0.80;;;16.70;57.60;;;;;;5015066;28;20073;-78
2022/03/12 07:50:23;;;;;;;2.92;0.90;;;16.70;57.60;;;;;;5015115;28;20397;-78
2022/03/12 07:52:49;;;;;;;3.85;1.02;;;16.70;57.60;;;;;;5014881;28;20030;-78
2022/03/12 07:55:16;;;;;;;2.03;0.60;;;16.70;57.60;;;;;;5015032;28;20033;-77
2022/03/12 07:57:42;;;;;;;1.42;0.60;;;16.70;57.60;;;;;;5015303;28;20450;-76
2022/03/12 08:00:10;;;;;;;1.73;0.77;;;16.80;57.70;;;;;;5015366;28;20061;-77
2022/03/12 08:02:36;;;;;;;2.00;0.98;;;16.80;57.60;;;;;;5014927;28;20030;-77
2022/03/12 08:05:03;;;;;;;1.52;0.63;;;16.80;57.60;;;;;;5014717;28;20038;-77
2022/03/12 08:07:30;;;;;;;3.88;1.27;;;16.80;57.60;;;;;;5014949;28;20453;-77
2022/03/12 08:09:59;;;;;;;2.13;0.80;;;16.80;57.60;;;;;;5014739;28;20043;-77
2022/03/12 08:12:28;;;;;;;3.70;0.70;;;16.80;57.60;;;;;;5014787;28;20018;-77
2022/03/12 08:14:54;;;;;;;4.05;0.90;;;16.80;57.60;;;;;;5014586;28;20041;-77
2022/03/12 08:17:20;;;;;;;2.70;0.85;;;16.80;57.60;;;;;;5014804;28;20046;-77
2022/03/12 08:19:47;;;;;;;2.35;1.02;;;16.80;57.60;;;;;;5014495;28;20033;-77
2022/03/12 08:22:13;;;;;;;2.90;0.90;;;16.80;57.60;;;;;;5014629;28;20036;-78
2022/03/12 08:24:39;;;;;;;2.00;0.77;;;16.80;57.60;;;;;;5014995;28;20031;-77
2022/03/12 08:27:07;;;;;;;3.53;1.13;;;16.80;57.50;;;;;;5014365;28;20153;-77
2022/03/12 08:29:33;;;;;;;2.20;0.80;;;16.90;57.50;;;;;;5014671;28;20028;-78
2022/03/12 08:31:59;;;;;;;2.30;1.00;;;16.80;57.50;;;;;;5014239;28;20037;-78
2022/03/12 08:34:25;;;;;;;2.60;0.80;;;16.90;57.50;;;;;;5014465;28;20030;-79
2022/03/12 08:36:51;;;;;;;3.80;0.80;;;16.80;57.60;;;;;;5014301;28;20031;-79
2022/03/12 08:39:17;;;;;;;3.05;1.02;;;16.80;57.50;;;;;;5014360;28;20022;-79
2022/03/12 08:41:43;;;;;;;2.22;0.90;;;16.80;57.50;;;;;;5013935;28;20096;-78
2022/03/12 08:44:09;;;;;;;2.28;0.70;;;16.90;57.60;;;;;;5014673;28;20030;-78
2022/03/12 08:46:36;;;;;;;2.28;0.70;;;16.90;57.60;;;;;;5014443;28;20033;-78
2022/03/12 08:49:03;;;;;;;2.67;0.93;;;16.80;57.50;;;;;;5013946;28;20026;-79
2022/03/12 08:51:29;;;;;;;2.00;0.70;;;16.80;57.50;;;;;;5013676;28;20501;-78
2022/03/12 08:53:55;;;;;;;2.47;0.70;;;16.90;57.60;;;;;;4994207;28;20081;-79
2022/03/12 08:56:20;;;;;;;2.88;0.80;;;16.90;57.60;;;;;;4996434;28;20425;-78
2022/03/12 08:58:47;;;;;;;3.45;0.80;;;16.90;57.70;;;;;;4994259;28;20034;-79
2022/03/12 09:01:13;;;;;;;2.58;0.93;;;16.90;57.60;;;;;;4995205;28;20038;-78
2022/03/12 09:03:39;;;;;;;4.38;0.90;;;16.90;57.60;;;;;;5010706;28;20025;-78
2022/03/12 09:06:07;;;;;;;1.77;0.70;;;16.90;57.60;;;;;;5012163;28;20022;-79
2022/03/12 09:08:34;;;;;;;2.25;0.93;;;16.90;57.60;;;;;;5001727;28;20077;-78
2022/03/12 09:11:00;;;;;;;2.30;1.00;;;16.90;57.70;;;;;;5012051;28;20485;-78
2022/03/12 09:13:27;;;;;;;4.40;1.23;;;16.90;57.60;;;;;;4999862;28;20035;-78
2022/03/12 09:15:53;;;;;;;3.03;0.90;;;16.90;57.60;;;;;;5001596;28;20406;-78
2022/03/12 09:18:20;;;;;;;2.35;0.80;;;16.90;57.60;;;;;;4994733;28;20038;-78
2022/03/12 09:20:47;;;;;;;1.75;0.82;;;16.90;57.60;;;;;;4994730;28;20125;-80
2022/03/12 09:23:15;;;;;;;1.83;0.70;;;16.90;57.60;;;;;;4993915;28;20061;-80
2022/03/12 09:25:41;;;;;;;5.22;0.88;;;17.00;57.50;;;;;;4994355;28;20027;-82
2022/03/12 09:28:08;;;;;;;3.05;0.90;;;17.10;57.50;;;;;;4995267;28;20022;-81
2022/03/12 09:30:34;;;;;;;3.50;0.90;;;17.10;57.50;;;;;;4997062;28;20021;-82
2022/03/12 09:33:00;;;;;;;2.47;0.80;;;17.10;57.50;;;;;;4998613;28;20401;-82
2022/03/12 09:35:26;;;;;;;3.65;1.15;;;17.10;57.70;;;;;;5013674;28;20462;-83
2022/03/12 09:37:54;;;;;;;7.22;1.73;;;17.20;57.80;;;;;;4995714;28;20030;-83
2022/03/12 09:40:19;;;;;;;5.22;1.10;;;17.20;58.00;;;;;;5011449;28;20029;-79
2022/03/12 09:42:45;;;;;;;4.63;1.10;;;17.30;57.90;;;;;;4993448;28;20038;-83
2022/03/12 09:45:12;;;;;;;6.25;1.20;;;17.30;57.90;;;;;;4976335;28;20032;-82
2022/03/12 09:47:38;;;;;;;6.20;1.73;;;17.30;58.00;;;;;;4994035;28;20029;-82
2022/03/12 09:50:04;;;;;;;5.55;1.30;;;17.40;58.20;;;;;;4992175;28;20018;-81
2022/03/12 09:52:30;;;;;;;5.63;1.42;;;17.40;58.20;;;;;;4994159;28;20520;-82
2022/03/12 09:54:56;;;;;;;6.53;1.27;;;17.50;58.10;;;;;;5008419;28;20410;-81
2022/03/12 09:57:22;;;;;;;8.18;1.38;;;17.50;58.10;;;;;;5011727;28;20033;-76
2022/03/12 09:59:48;;;;;;;7.75;1.70;;;17.60;58.20;;;;;;5012998;28;20100;-78
2022/03/12 10:02:14;;;;;;;10.43;3.53;;;17.60;58.60;;;;;;5010732;28;20041;-76
2022/03/12 10:04:40;;;;;;;6.75;1.98;;;17.60;58.90;;;;;;5008177;28;20018;-78
2022/03/12 10:07:09;;;;;;;7.75;1.70;;;17.60;58.80;;;;;;5009734;28;20100;-78
2022/03/12 10:09:36;;;;;;;9.63;2.65;;;17.70;58.70;;;;;;5000752;28;20026;-78
2022/03/12 10:12:01;;;;;;;5.85;1.77;;;17.80;58.40;;;;;;4993617;28;20048;-79
2022/03/12 10:14:28;;;;;;;7.25;1.83;;;17.80;58.30;;;;;;5008710;28;20026;-80
2022/03/12 10:16:53;;;;;;;7.05;1.65;;;17.80;58.40;;;;;;5007297;28;20528;-80
2022/03/12 10:19:20;;;;;;;6.93;1.63;;;17.80;58.30;;;;;;5007311;28;20030;-80
2022/03/12 10:21:46;;;;;;;8.65;1.95;;;17.90;58.30;;;;;;4992941;28;20037;-79
2022/03/12 10:24:13;;;;;;;3.97;1.08;;;17.90;58.20;;;;;;5010935;28;20022;-77
2022/03/12 10:26:48;;;;;;;4.75;1.60;;;17.90;58.20;;;;;;5108681;27;20505;-78
2022/03/12 10:29:13;;;;;;;5.15;1.25;;;18.00;58.20;;;;;;5107726;28;20028;-77
2022/03/12 10:31:39;;;;;;;5.72;1.52;;;18.00;58.10;;;;;;5106261;28;20028;-79
2022/03/12 10:34:21;;;;;;;5.32;1.65;;;18.00;58.20;;;;;;5106462;28;20103;-79
2022/03/12 10:36:49;;;;;;;5.70;1.33;;;18.00;58.10;;;;;;5087040;28;20423;-80
2022/03/12 10:39:15;;;;;;;5.90;1.42;;;18.10;58.00;;;;;;5097206;28;20024;-77
2022/03/12 10:41:41;;;;;;;4.10;1.20;;;18.10;57.90;;;;;;5107773;28;20032;-77
2022/03/12 10:44:08;;;;;;;5.50;1.30;;;18.20;57.90;;;;;;5109006;28;20059;-77
2022/03/12 10:46:35;;;;;;;10.63;2.00;;;18.20;57.80;;;;;;5108663;28;20032;-77
2022/03/12 10:49:03;;;;;;;7.25;1.33;;;18.20;57.70;;;;;;5108409;28;20089;-78
2022/03/12 10:51:28;;;;;;;6.35;1.27;;;18.20;57.60;;;;;;5108664;28;20034;-78
2022/03/12 10:54:08;;;;;;;5.82;1.48;;;18.30;57.60;;;;;;5107903;28;20046;-77
2022/03/12 10:56:48;;;;;;;6.03;1.33;;;18.30;57.50;;;;;;5108647;28;20053;-79
2022/03/12 10:59:24;;;;;;;5.20;1.17;;;18.40;57.30;;;;;;5107904;28;20487;-78
2022/03/12 11:01:56;;;;;;;6.07;1.33;;;18.30;57.80;;;;;;5106282;28;20119;-78
2022/03/12 11:04:24;;;;;;;5.65;1.92;;;18.40;57.20;;;;;;5106678;28;20024;-78
2022/03/12 11:06:55;;;;;;;4.05;1.27;;;18.50;57.00;;;;;;5106720;28;20038;-76
2022/03/12 11:09:33;;;;;;;2.53;0.85;;;18.50;57.00;;;;;;5107747;28;20024;-81
2022/03/12 11:12:00;;;;;;;4.88;1.27;;;18.60;57.10;;;;;;5106486;28;20106;-77
2022/03/12 11:14:31;;;;;;;6.30;1.30;;;18.60;56.90;;;;;;5108213;28;20012;-79
2022/03/12 11:16:58;;;;;;;5.63;1.10;;;18.70;56.90;;;;;;5107908;28;20035;-79
2022/03/12 11:19:39;;;;;;;7.75;1.70;;;18.60;57.00;;;;;;5108121;28;20042;-80
2022/03/12 11:22:13;;;;;;;6.25;1.20;;;18.50;57.10;;;;;;5107864;28;20434;-77
2022/03/12 11:24:53;;;;;;;3.90;0.80;;;18.50;57.10;;;;;;5108207;28;20031;-77
2022/03/12 11:27:32;;;;;;;5.93;1.40;;;18.60;57.00;;;;;;5107135;28;20028;-77
2022/03/12 11:30:07;;;;;;;6.00;1.60;;;18.70;57.00;;;;;;5107121;28;20059;-77
2022/03/12 11:32:35;;;;;;;3.63;1.10;;;18.70;57.00;;;;;;5106563;28;20484;-77
2022/03/12 11:35:10;;;;;;;5.25;1.77;;;18.70;56.80;;;;;;5107526;28;20020;-77
2022/03/12 11:37:41;;;;;;;3.53;1.10;;;18.80;56.80;;;;;;5097256;28;20024;-77
2022/03/12 11:40:11;;;;;;;6.13;1.38;;;18.80;56.70;;;;;;5094504;28;20059;-76
2022/03/12 11:42:38;;;;;;;6.70;1.63;;;18.80;56.70;;;;;;5094441;28;20502;-76
2022/03/12 11:45:15;;;;;;;4.50;1.35;;;18.80;56.70;;;;;;5093782;28;20028;-77
2022/03/12 11:47:43;;;;;;;5.78;1.00;;;18.80;56.70;;;;;;5094346;28;20024;-77
2022/03/12 11:50:16;;;;;;;3.55;1.05;;;18.80;56.50;;;;;;5094231;28;20065;-77
2022/03/12 11:52:46;;;;;;;4.97;1.10;;;18.90;56.60;;;;;;5094248;28;20028;-78
2022/03/12 11:55:37;;;;;;;2.55;1.05;;;18.80;56.60;;;;;;5093986;28;20384;-77
2022/03/12 11:58:03;;;;;;;6.72;1.83;;;18.80;56.50;;;;;;5089229;28;20366;-78
2022/03/12 12:00:29;;;;;;;3.17;0.98;;;18.90;56.60;;;;;;5092187;28;20031;-78
2022/03/12 12:02:57;;;;;;;6.35;1.20;;;18.90;56.50;;;;;;5093452;28;20021;-78
2022/03/12 12:05:25;;;;;;;5.15;1.02;;;18.90;56.40;;;;;;5093561;28;20453;-78
2022/03/12 12:07:51;;;;;;;7.20;1.60;;;18.90;56.40;;;;;;5092177;28;20024;-78
2022/03/12 12:10:20;;;;;;;3.30;0.90;;;18.90;56.30;;;;;;5093579;28;20472;-78
2022/03/12 12:12:50;;;;;;;6.80;1.23;;;18.90;56.40;;;;;;5093343;28;20047;-77
2022/03/12 12:15:23;;;;;;;4.80;1.25;;;18.90;56.30;;;;;;5093498;28;20383;-78
2022/03/12 12:17:50;;;;;;;5.22;1.02;;;18.90;56.30;;;;;;5093312;28;20020;-77
2022/03/12 12:20:19;;;;;;;3.00;0.88;;;18.90;56.20;;;;;;5093401;28;20055;-78
2022/03/12 12:22:45;;;;;;;6.20;1.33;;;18.90;56.20;;;;;;5091805;28;20035;-77
2022/03/12 12:25:11;;;;;;;4.80;0.90;;;18.90;56.20;;;;;;5092058;28;20032;-77
2022/03/12 12:27:46;;;;;;;6.13;1.05;;;18.90;56.30;;;;;;5092271;28;20073;-77
2022/03/12 12:30:19;;;;;;;3.25;0.93;;;18.80;56.30;;;;;;5091703;28;20039;-77
2022/03/12 12:32:49;;;;;;;3.50;0.80;;;18.90;56.30;;;;;;5091473;28;20111;-77
2022/03/12 12:35:22;;;;;;;3.53;0.90;;;18.90;56.30;;;;;;5093051;28;20028;-77
2022/03/12 12:37:51;;;;;;;4.07;1.27;;;18.70;56.40;;;;;;5092734;28;20520;-77
2022/03/12 12:40:18;;;;;;;3.35;0.93;;;18.70;56.50;;;;;;5091632;28;20020;-77
2022/03/12 12:42:45;;;;;;;3.17;1.05;;;18.60;56.70;;;;;;5092813;28;20020;-77
2022/03/12 12:45:13;;;;;;;3.85;1.17;;;18.60;56.90;;;;;;5091910;28;20106;-77
2022/03/12 12:47:39;;;;;;;5.47;1.05;;;18.50;56.90;;;;;;5092932;28;20073;-77
2022/03/12 12:50:17;;;;;;;5.00;1.13;;;18.50;56.80;;;;;;5091930;28;20052;-77